Terminal Aerodrome Forecast
Issued by NWS Wilmington, OH

Current Version | Previous Version | Graphics & Text | Print | Product List | Glossary On
Versions: 1 2 3 4 5 6 7 8 9 10 11 12 13 14 15 16 17 18 19 20 21
000
FTUS41 KILN 221100
TAFDAY
TAF
KDAY 221125Z 2212/2312 13007KT P6SM SCT015 BKN050
     FM221800 12010KT P6SM SCT035 BKN150
     FM230300 13010KT P6SM VCSH SCT040 BKN060
     FM230500 13010KT 5SM -RA BR OVC008=

USA.gov is the U.S. government's official web portal to all federal, state and local government web resources and services.